Time;durP1;ratioP1;P1;durP2;ratioP2;P2;SDS_P1;SDS_P2;PMS_P1;PMS_P2;Temp;Humidity;BMP_temperature;BMP_pressure;BME280_temperature;BME280_humidity;BME280_pressure;Samples;Min_cycle;Max_cycle;Signal;HPM_P1;HPM_P2
2023/12/25 00:01:36;;;;;;;1.23;0.90;;;11.60;99.90;;;;;;5014826;28;20037;-86
2023/12/25 00:04:02;;;;;;;1.55;1.23;;;11.60;99.90;;;;;;5014625;28;20408;-86
2023/12/25 00:06:28;;;;;;;4.45;1.65;;;11.60;99.90;;;;;;5031061;28;20045;-85
2023/12/25 00:08:54;;;;;;;2.33;1.15;;;11.60;99.90;;;;;;5016658;28;20045;-84
2023/12/25 00:11:20;;;;;;;2.38;1.33;;;11.60;99.90;;;;;;5035412;28;20045;-84
2023/12/25 00:13:51;;;;;;;2.33;1.00;;;11.60;99.90;;;;;;5035225;28;20053;-82
2023/12/25 00:16:17;;;;;;;2.47;1.27;;;11.60;99.90;;;;;;5035281;28;20050;-81
2023/12/25 00:18:42;;;;;;;3.15;1.50;;;11.60;99.90;;;;;;5018942;28;20037;-82
2023/12/25 00:21:08;;;;;;;2.55;1.30;;;11.60;99.90;;;;;;5018336;28;20079;-82
2023/12/25 00:23:34;;;;;;;1.27;1.17;;;11.60;99.90;;;;;;5034612;28;20052;-82
2023/12/25 00:25:59;;;;;;;1.63;1.30;;;11.60;99.90;;;;;;5034690;28;20156;-83
2023/12/25 00:28:25;;;;;;;2.35;1.10;;;11.60;99.90;;;;;;5018074;28;20037;-82
2023/12/25 00:30:50;;;;;;;2.83;1.50;;;11.60;99.90;;;;;;5018418;28;20266;-82
2023/12/25 00:33:16;;;;;;;1.70;0.88;;;11.60;99.90;;;;;;5034772;28;20048;-82
2023/12/25 00:35:42;;;;;;;1.90;1.20;;;11.60;99.90;;;;;;5034689;28;20124;-83
2023/12/25 00:38:07;;;;;;;2.55;1.15;;;11.60;99.90;;;;;;5018039;28;20073;-83
2023/12/25 00:40:33;;;;;;;1.13;0.77;;;11.50;99.90;;;;;;5017845;28;20039;-82
2023/12/25 00:42:59;;;;;;;3.03;1.25;;;11.50;99.90;;;;;;5017538;28;20037;-82
2023/12/25 00:45:24;;;;;;;2.47;1.13;;;11.50;99.90;;;;;;5034474;28;20413;-82
2023/12/25 00:47:50;;;;;;;2.33;1.33;;;11.50;99.90;;;;;;5034600;28;20045;-81
2023/12/25 00:50:16;;;;;;;3.53;1.77;;;11.60;99.90;;;;;;5018386;28;20041;-77
2023/12/25 00:52:41;;;;;;;2.92;1.50;;;11.50;99.90;;;;;;5033838;28;20045;-77
2023/12/25 00:55:07;;;;;;;1.35;0.80;;;11.40;99.90;;;;;;5033854;28;20067;-78
2023/12/25 00:57:34;;;;;;;1.92;1.25;;;11.40;99.90;;;;;;5034026;28;20464;-78
2023/12/25 01:00:01;;;;;;;1.77;1.27;;;11.50;99.90;;;;;;5017536;28;20041;-86
2023/12/25 01:02:26;;;;;;;1.77;1.33;;;11.50;99.90;;;;;;5033756;28;20041;-79
2023/12/25 01:04:52;;;;;;;1.98;0.73;;;11.40;99.90;;;;;;5033778;28;20404;-79
2023/12/25 01:07:18;;;;;;;1.83;0.98;;;11.40;99.90;;;;;;5017250;28;20387;-79
2023/12/25 01:09:43;;;;;;;1.75;1.05;;;11.30;99.90;;;;;;5033677;28;20048;-79
2023/12/25 01:12:13;;;;;;;1.33;0.90;;;11.30;99.90;;;;;;5018093;28;20091;-87
2023/12/25 01:14:42;;;;;;;1.58;0.82;;;11.30;99.90;;;;;;5017919;28;20037;-87
2023/12/25 01:17:10;;;;;;;1.02;0.73;;;11.20;99.90;;;;;;5034457;28;20063;-86
2023/12/25 01:19:36;;;;;;;1.75;1.00;;;11.30;99.90;;;;;;5017484;28;20044;-86
2023/12/25 01:22:01;;;;;;;1.15;0.82;;;11.20;99.90;;;;;;5017476;28;20485;-87
2023/12/25 01:24:27;;;;;;;1.98;1.08;;;11.20;99.90;;;;;;5018212;28;20449;-83
2023/12/25 01:26:57;;;;;;;1.25;0.98;;;11.10;99.90;;;;;;5040456;28;20044;-83
2023/12/25 01:29:23;;;;;;;2.55;1.10;;;11.10;99.90;;;;;;5041641;28;20048;-84
2023/12/25 01:31:48;;;;;;;1.88;1.13;;;11.30;99.90;;;;;;5040043;28;20037;-83
2023/12/25 01:34:14;;;;;;;2.55;0.98;;;11.00;99.90;;;;;;5023423;28;20045;-84
2023/12/25 01:36:41;;;;;;;2.33;0.95;;;11.00;99.90;;;;;;5040510;28;20037;-83
2023/12/25 01:39:07;;;;;;;1.20;0.88;;;11.00;99.90;;;;;;5039475;28;20038;-83
2023/12/25 01:41:33;;;;;;;2.58;0.90;;;10.90;99.90;;;;;;5039328;28;20041;-78
2023/12/25 01:43:58;;;;;;;2.33;1.13;;;11.00;99.90;;;;;;5033813;28;20141;-78
2023/12/25 01:46:24;;;;;;;3.22;1.38;;;11.10;99.90;;;;;;5036172;28;20095;-78
2023/12/25 01:48:51;;;;;;;3.55;1.15;;;11.20;99.90;;;;;;5022036;28;20132;-78
2023/12/25 01:51:19;;;;;;;1.90;1.20;;;11.00;99.90;;;;;;5048809;28;20109;-78
2023/12/25 01:53:45;;;;;;;1.42;0.98;;;11.00;99.90;;;;;;5046086;28;20041;-78
2023/12/25 01:56:11;;;;;;;1.95;1.25;;;10.90;99.90;;;;;;5024530;28;20087;-77
2023/12/25 01:58:36;;;;;;;2.50;0.82;;;11.00;99.90;;;;;;5024455;28;20041;-79
2023/12/25 02:01:02;;;;;;;2.63;0.98;;;11.00;99.90;;;;;;5041113;28;20045;-80
2023/12/25 02:03:28;;;;;;;0.90;0.80;;;10.90;99.90;;;;;;5039763;28;20041;-80
2023/12/25 02:05:54;;;;;;;1.02;0.90;;;11.00;99.90;;;;;;5039913;28;20084;-78
2023/12/25 02:08:20;;;;;;;2.10;0.98;;;11.00;99.90;;;;;;5023024;28;20042;-79
2023/12/25 02:10:46;;;;;;;1.33;0.90;;;11.20;99.90;;;;;;5039494;28;20052;-79
2023/12/25 02:13:11;;;;;;;3.00;1.27;;;11.00;99.90;;;;;;5025396;28;20041;-79
2023/12/25 02:15:39;;;;;;;1.75;0.93;;;10.90;99.90;;;;;;5039715;28;20038;-76
2023/12/25 02:18:05;;;;;;;3.00;1.23;;;11.00;99.90;;;;;;5023595;28;20037;-78
2023/12/25 02:20:33;;;;;;;1.00;0.80;;;10.90;99.90;;;;;;5021697;28;20120;-79
2023/12/25 02:23:01;;;;;;;3.15;1.20;;;10.90;99.90;;;;;;5032802;28;20124;-78
2023/12/25 02:25:33;;;;;;;1.45;0.93;;;10.90;99.90;;;;;;5016620;28;20045;-79
2023/12/25 02:28:00;;;;;;;2.30;1.50;;;10.80;99.90;;;;;;5033019;28;20034;-79
2023/12/25 02:30:27;;;;;;;0.88;0.80;;;10.80;99.90;;;;;;5016476;28;20076;-78
2023/12/25 02:32:52;;;;;;;1.80;1.10;;;10.90;99.90;;;;;;5032834;28;20094;-78
2023/12/25 02:35:18;;;;;;;2.25;1.05;;;10.80;99.90;;;;;;5032732;28;20461;-79
2023/12/25 02:37:44;;;;;;;1.63;1.10;;;10.90;99.90;;;;;;5016178;28;20064;-79
2023/12/25 02:40:10;;;;;;;2.25;1.08;;;10.90;99.90;;;;;;5032144;28;20091;-79
2023/12/25 02:42:36;;;;;;;1.15;0.93;;;10.90;99.90;;;;;;5016280;28;20045;-79
2023/12/25 02:45:02;;;;;;;1.48;1.25;;;10.90;99.90;;;;;;5016006;28;20069;-79
2023/12/25 02:47:27;;;;;;;1.85;1.05;;;10.90;99.90;;;;;;5032081;28;20412;-79
2023/12/25 02:49:53;;;;;;;1.17;0.85;;;10.90;99.90;;;;;;5032278;28;20045;-78
2023/12/25 02:52:19;;;;;;;1.67;0.73;;;10.90;99.90;;;;;;5031763;28;20067;-78
2023/12/25 02:54:44;;;;;;;2.05;0.82;;;11.10;99.90;;;;;;5031895;28;20037;-78
2023/12/25 02:57:10;;;;;;;3.35;1.10;;;11.00;99.90;;;;;;5031644;28;20037;-78
2023/12/25 02:59:35;;;;;;;1.60;0.70;;;11.00;99.90;;;;;;5031782;28;20048;-78
2023/12/25 03:02:03;;;;;;;0.88;0.68;;;11.00;99.90;;;;;;5015135;28;20045;-78
2023/12/25 03:04:28;;;;;;;1.65;0.88;;;11.00;99.90;;;;;;5015358;28;20090;-78
2023/12/25 03:06:54;;;;;;;1.75;1.00;;;11.00;99.90;;;;;;5015264;28;20067;-78
2023/12/25 03:09:21;;;;;;;1.30;0.70;;;10.90;99.90;;;;;;5031866;28;20049;-80
2023/12/25 03:11:46;;;;;;;1.27;0.60;;;10.90;99.90;;;;;;5031487;28;20479;-79
2023/12/25 03:14:12;;;;;;;1.38;0.73;;;10.90;99.90;;;;;;5014985;28;20128;-79
2023/12/25 03:16:38;;;;;;;1.17;0.80;;;10.90;99.90;;;;;;5031419;28;20034;-78
2023/12/25 03:19:03;;;;;;;1.20;0.60;;;10.80;99.90;;;;;;5031752;28;20045;-78
2023/12/25 03:21:29;;;;;;;2.47;0.82;;;10.80;99.90;;;;;;5015014;28;20095;-78
2023/12/25 03:23:54;;;;;;;1.88;1.05;;;10.80;99.90;;;;;;5031570;28;20033;-79
2023/12/25 03:26:20;;;;;;;0.80;0.68;;;10.80;99.90;;;;;;5031533;28;20042;-79
2023/12/25 03:28:46;;;;;;;1.17;0.75;;;10.80;99.90;;;;;;5014910;28;20041;-79
2023/12/25 03:31:13;;;;;;;0.85;0.65;;;10.80;99.90;;;;;;5031427;28;20049;-85
2023/12/25 03:33:39;;;;;;;2.53;1.17;;;10.90;99.90;;;;;;5032658;28;20466;-85
2023/12/25 03:36:07;;;;;;;1.90;0.70;;;10.90;99.90;;;;;;5031591;28;20041;-84
2023/12/25 03:38:32;;;;;;;1.33;0.80;;;10.80;99.90;;;;;;5014924;28;20037;-85
2023/12/25 03:40:58;;;;;;;1.80;0.70;;;10.80;99.90;;;;;;5014958;28;20478;-84
2023/12/25 03:43:26;;;;;;;1.75;0.70;;;10.80;99.90;;;;;;5032221;28;20401;-85
2023/12/25 03:45:56;;;;;;;;;;;10.90;99.90;;;;;;5036639;28;20041;-84
2023/12/25 03:48:30;;;;;;;1.55;0.90;;;11.00;99.90;;;;;;5035435;28;20015;-84
2023/12/25 03:50:56;;;;;;;0.75;0.60;;;10.80;99.90;;;;;;5018841;28;20136;-86
2023/12/25 03:53:21;;;;;;;1.45;0.82;;;10.80;99.90;;;;;;5035332;28;20052;-86
2023/12/25 03:55:47;;;;;;;0.70;0.70;;;10.90;99.90;;;;;;5035581;28;20041;-84
2023/12/25 03:58:13;;;;;;;1.55;0.57;;;10.90;99.90;;;;;;5035386;28;20036;-84
2023/12/25 04:00:38;;;;;;;1.08;0.75;;;10.90;99.90;;;;;;5018633;28;20045;-78
2023/12/25 04:03:04;;;;;;;1.25;0.98;;;10.80;99.90;;;;;;5035080;28;20563;-79
2023/12/25 04:05:30;;;;;;;0.80;0.75;;;10.80;99.90;;;;;;5035059;28;20041;-78
2023/12/25 04:07:56;;;;;;;1.38;0.95;;;10.80;99.90;;;;;;5018311;28;20041;-78
2023/12/25 04:10:22;;;;;;;0.82;0.60;;;10.90;99.90;;;;;;5034713;28;20335;-79
2023/12/25 04:12:47;;;;;;;0.68;0.63;;;10.90;99.90;;;;;;5018245;28;20444;-78
2023/12/25 04:15:13;;;;;;;1.35;0.88;;;10.90;99.90;;;;;;5018410;28;20485;-79
2023/12/25 04:17:39;;;;;;;1.20;0.70;;;10.80;99.90;;;;;;5034599;28;20130;-78
2023/12/25 04:20:05;;;;;;;1.27;0.80;;;11.00;99.90;;;;;;5034360;28;20477;-79
2023/12/25 04:22:31;;;;;;;2.50;0.85;;;10.70;99.90;;;;;;5034796;28;20164;-78
2023/12/25 04:24:56;;;;;;;2.63;1.13;;;10.70;99.90;;;;;;5017905;28;20049;-80
2023/12/25 04:27:22;;;;;;;0.73;0.73;;;10.80;99.90;;;;;;5034369;28;20489;-78
2023/12/25 04:29:48;;;;;;;0.68;0.47;;;10.80;99.90;;;;;;5017941;28;20132;-79
2023/12/25 04:32:13;;;;;;;1.50;1.20;;;10.80;99.90;;;;;;5034168;28;20049;-79
2023/12/25 04:34:39;;;;;;;1.58;1.15;;;10.80;99.90;;;;;;5017836;28;20147;-78
2023/12/25 04:37:05;;;;;;;0.88;0.50;;;10.80;99.90;;;;;;5034222;28;20405;-79
2023/12/25 04:39:30;;;;;;;1.88;0.80;;;10.80;99.90;;;;;;5034059;28;20489;-78
2023/12/25 04:41:56;;;;;;;1.30;0.70;;;10.80;99.90;;;;;;5034099;28;20402;-79
2023/12/25 04:44:22;;;;;;;1.42;0.75;;;10.80;99.90;;;;;;5017495;28;20532;-78
2023/12/25 04:46:47;;;;;;;1.27;0.70;;;10.80;99.90;;;;;;5034137;28;20515;-78
2023/12/25 04:49:14;;;;;;;1.15;0.85;;;10.80;99.90;;;;;;5033961;28;20049;-79
2023/12/25 04:51:39;;;;;;;1.42;0.80;;;10.80;99.90;;;;;;5034516;28;20037;-78
2023/12/25 04:54:05;;;;;;;3.80;1.08;;;10.80;99.90;;;;;;5033637;28;20183;-79
2023/12/25 04:56:31;;;;;;;2.17;0.80;;;10.80;99.90;;;;;;5016342;28;20038;-79
2023/12/25 04:58:57;;;;;;;2.50;1.13;;;10.80;99.90;;;;;;5033803;28;20052;-79
2023/12/25 05:01:23;;;;;;;0.90;0.60;;;10.80;99.90;;;;;;5034023;28;20033;-81
2023/12/25 05:03:49;;;;;;;1.35;0.80;;;10.80;99.90;;;;;;5033975;28;20103;-81
2023/12/25 05:06:15;;;;;;;0.98;0.82;;;10.80;99.90;;;;;;5034001;28;20048;-80
2023/12/25 05:08:40;;;;;;;0.98;0.70;;;10.80;99.90;;;;;;5017350;28;20087;-80
2023/12/25 05:11:06;;;;;;;1.15;0.60;;;10.80;99.90;;;;;;5033966;28;20565;-81
2023/12/25 05:13:32;;;;;;;1.45;0.75;;;10.80;99.90;;;;;;5017254;28;20528;-81
2023/12/25 05:15:57;;;;;;;3.25;1.08;;;10.90;99.90;;;;;;5017483;28;20069;-80
2023/12/25 05:18:24;;;;;;;1.55;1.05;;;10.80;99.90;;;;;;5034002;28;20054;-81
2023/12/25 05:20:50;;;;;;;1.50;0.93;;;10.80;99.90;;;;;;5033951;28;20041;-81
2023/12/25 05:23:15;;;;;;;1.85;0.82;;;10.80;99.90;;;;;;5017367;28;20045;-81
2023/12/25 05:25:41;;;;;;;0.98;0.88;;;10.80;99.90;;;;;;5034106;28;20049;-81
2023/12/25 05:28:07;;;;;;;2.15;0.80;;;10.80;99.90;;;;;;5033562;28;20044;-80
2023/12/25 05:30:33;;;;;;;2.50;0.93;;;10.80;99.90;;;;;;5017034;28;20409;-80
2023/12/25 05:32:58;;;;;;;1.77;0.80;;;10.80;99.90;;;;;;5033234;28;20499;-80
2023/12/25 05:35:24;;;;;;;2.10;1.05;;;10.80;99.90;;;;;;5017247;28;20140;-81
2023/12/25 05:37:50;;;;;;;2.33;1.02;;;10.80;99.90;;;;;;5016920;28;20034;-80
2023/12/25 05:40:16;;;;;;;2.42;1.02;;;10.80;99.90;;;;;;5016741;28;20044;-80
2023/12/25 05:42:41;;;;;;;0.98;0.65;;;10.80;99.90;;;;;;5017020;28;20049;-80
2023/12/25 05:45:08;;;;;;;2.40;1.00;;;10.80;99.90;;;;;;5033136;28;20521;-82
2023/12/25 05:47:33;;;;;;;1.52;0.80;;;10.80;99.90;;;;;;5016820;28;20045;-79
2023/12/25 05:49:59;;;;;;;1.65;0.90;;;10.70;99.90;;;;;;5033577;28;20485;-80
2023/12/25 05:52:25;;;;;;;1.90;1.02;;;10.70;99.90;;;;;;5034645;28;20124;-80
2023/12/25 05:54:51;;;;;;;1.48;1.08;;;10.70;99.90;;;;;;5033184;28;20041;-81
2023/12/25 05:57:17;;;;;;;1.33;0.93;;;10.80;99.90;;;;;;5016849;28;20037;-80
2023/12/25 05:59:43;;;;;;;1.30;0.77;;;10.70;99.90;;;;;;5033078;28;20120;-80
2023/12/25 06:02:11;;;;;;;1.30;0.77;;;10.70;99.90;;;;;;5033035;28;20469;-84
2023/12/25 06:04:37;;;;;;;2.30;1.13;;;10.70;99.90;;;;;;5016544;28;20099;-84
2023/12/25 06:07:03;;;;;;;1.98;1.30;;;10.70;99.90;;;;;;5032691;28;20046;-85
2023/12/25 06:09:29;;;;;;;1.15;0.98;;;10.70;99.90;;;;;;5016460;28;20388;-85
2023/12/25 06:11:55;;;;;;;0.85;0.75;;;10.70;99.90;;;;;;5032573;28;20052;-83
2023/12/25 06:14:21;;;;;;;2.47;1.15;;;10.60;99.90;;;;;;5032400;28;20045;-84
2023/12/25 06:16:47;;;;;;;2.38;0.90;;;10.60;99.90;;;;;;5032413;28;20489;-84
2023/12/25 06:19:12;;;;;;;2.58;0.80;;;10.50;99.90;;;;;;5032362;28;20033;-85
2023/12/25 06:21:38;;;;;;;2.58;1.05;;;10.50;99.90;;;;;;5017501;28;20095;-80
2023/12/25 06:24:04;;;;;;;1.42;0.80;;;10.50;99.90;;;;;;5016560;28;20037;-80
2023/12/25 06:26:30;;;;;;;1.38;0.88;;;10.40;99.90;;;;;;5016318;28;20041;-80
2023/12/25 06:28:55;;;;;;;3.22;1.25;;;10.40;99.90;;;;;;5032599;28;20045;-79
2023/12/25 06:31:21;;;;;;;1.33;0.80;;;10.40;99.90;;;;;;5015918;28;20136;-81
2023/12/25 06:33:46;;;;;;;1.75;0.90;;;10.30;99.90;;;;;;5032471;28;20041;-81
2023/12/25 06:36:12;;;;;;;0.77;0.60;;;10.30;99.90;;;;;;5016124;28;20051;-81
2023/12/25 06:38:38;;;;;;;2.13;0.80;;;10.20;99.90;;;;;;5015961;28;20033;-81
2023/12/25 06:41:03;;;;;;;2.83;1.33;;;10.20;99.90;;;;;;5032592;28;20037;-81
2023/12/25 06:43:29;;;;;;;2.65;1.23;;;10.10;99.90;;;;;;5015539;28;20065;-81
2023/12/25 06:45:55;;;;;;;1.75;0.85;;;10.10;99.90;;;;;;5015749;28;20049;-81
2023/12/25 06:48:21;;;;;;;1.75;1.17;;;10.10;99.90;;;;;;5015659;28;20639;-82
2023/12/25 06:50:48;;;;;;;1.70;0.88;;;10.10;99.90;;;;;;5032279;28;20044;-81
2023/12/25 06:53:13;;;;;;;2.75;1.10;;;10.10;99.90;;;;;;5032597;28;20466;-80
2023/12/25 06:55:39;;;;;;;1.58;0.70;;;10.10;99.90;;;;;;5015842;28;20077;-81
2023/12/25 06:58:05;;;;;;;1.67;1.10;;;10.10;99.90;;;;;;5015596;28;20131;-81
2023/12/25 07:00:30;;;;;;;1.83;1.13;;;10.10;99.90;;;;;;5015671;28;20038;-81
2023/12/25 07:02:56;;;;;;;2.38;1.02;;;10.00;99.90;;;;;;5032291;28;20460;-81
2023/12/25 07:05:23;;;;;;;2.35;0.88;;;10.10;99.90;;;;;;5031985;28;20448;-82
2023/12/25 07:07:48;;;;;;;1.65;1.27;;;10.10;99.90;;;;;;5031959;28;20485;-81
2023/12/25 07:10:14;;;;;;;1.52;1.10;;;10.00;99.90;;;;;;5031990;28;20128;-81
2023/12/25 07:12:40;;;;;;;2.58;1.17;;;10.10;99.90;;;;;;5032062;28;20045;-81
2023/12/25 07:15:06;;;;;;;2.33;0.98;;;11.40;99.90;;;;;;5032220;28;20446;-81
2023/12/25 07:17:35;;;;;;;2.05;0.93;;;10.10;99.90;;;;;;5031614;28;20045;-81
2023/12/25 07:20:01;;;;;;;1.27;0.70;;;10.10;99.90;;;;;;5015528;28;20045;-81
2023/12/25 07:22:29;;;;;;;3.13;1.30;;;10.10;99.90;;;;;;5031869;28;20448;-80
2023/12/25 07:24:54;;;;;;;1.80;0.77;;;10.10;99.90;;;;;;5031728;28;20425;-81
2023/12/25 07:27:20;;;;;;;4.53;1.55;;;10.00;99.90;;;;;;5015416;28;20045;-81
2023/12/25 07:29:46;;;;;;;0.82;0.80;;;10.00;99.90;;;;;;5032017;28;20033;-81
2023/12/25 07:32:11;;;;;;;1.52;0.70;;;10.00;99.90;;;;;;5015577;28;20408;-81
2023/12/25 07:34:37;;;;;;;2.63;1.27;;;9.90;99.90;;;;;;5031993;28;20409;-81
2023/12/25 11:54:00;;;;;;;2.22;1.58;;;10.00;99.90;;;;;;5090494;28;20443;-63
2023/12/25 11:56:29;;;;;;;2.03;1.17;;;10.00;99.90;;;;;;5090332;28;20471;-62
2023/12/25 11:58:54;;;;;;;1.73;0.95;;;10.00;99.90;;;;;;5090324;28;20441;-63
2023/12/25 12:01:22;;;;;;;1.75;1.05;;;10.00;99.90;;;;;;5089237;28;20044;-63
2023/12/25 12:03:49;;;;;;;1.98;1.17;;;10.00;99.90;;;;;;5089010;28;20079;-63
2023/12/25 12:06:16;;;;;;;2.90;1.50;;;10.00;99.90;;;;;;5090693;28;20063;-71
2023/12/25 12:08:43;;;;;;;2.38;1.30;;;10.00;99.90;;;;;;5089153;28;20463;-70
2023/12/25 12:11:10;;;;;;;1.42;0.80;;;10.10;99.90;;;;;;5088859;28;20040;-70
2023/12/25 12:13:36;;;;;;;1.90;1.15;;;10.00;99.90;;;;;;5090032;28;20048;-70
2023/12/25 12:16:03;;;;;;;1.58;0.85;;;10.10;99.90;;;;;;5088688;28;20063;-70
2023/12/25 12:18:28;;;;;;;1.98;1.13;;;10.20;99.90;;;;;;5088836;28;20047;-71
2023/12/25 12:20:54;;;;;;;2.65;1.42;;;10.20;99.90;;;;;;5089875;28;20040;-70
2023/12/25 12:23:20;;;;;;;2.03;1.05;;;10.20;99.90;;;;;;5088710;28;20040;-70
2023/12/25 12:25:46;;;;;;;1.95;1.25;;;10.30;99.90;;;;;;5105496;28;20138;-70
2023/12/25 12:28:15;;;;;;;3.05;1.17;;;10.30;99.90;;;;;;5089803;28;20523;-70
2023/12/25 12:30:40;;;;;;;1.63;1.15;;;10.30;99.90;;;;;;5088452;28;20044;-70
2023/12/25 12:33:08;;;;;;;2.55;1.10;;;10.30;99.90;;;;;;5088113;28;20067;-68
2023/12/25 12:35:34;;;;;;;1.33;0.85;;;10.30;99.90;;;;;;5089771;28;20036;-71
2023/12/25 12:38:00;;;;;;;2.08;1.23;;;10.30;99.90;;;;;;5088414;28;20503;-71
2023/12/25 12:40:27;;;;;;;1.80;0.73;;;10.20;99.90;;;;;;5089876;28;20796;-70
2023/12/25 12:42:53;;;;;;;1.00;0.90;;;10.20;99.90;;;;;;5088456;28;20479;-72
2023/12/25 12:45:19;;;;;;;2.78;1.25;;;10.20;99.90;;;;;;5089881;28;20041;-71
2023/12/25 12:47:45;;;;;;;2.53;1.23;;;10.50;99.90;;;;;;5088007;28;20047;-69
2023/12/25 12:50:12;;;;;;;1.30;0.75;;;10.30;99.90;;;;;;5089180;28;20036;-72
2023/12/25 12:52:37;;;;;;;1.38;0.80;;;10.40;99.90;;;;;;5087822;28;20131;-71
2023/12/25 12:55:03;;;;;;;1.30;0.80;;;10.40;99.90;;;;;;5089514;28;20166;-71
2023/12/25 12:57:29;;;;;;;2.00;1.13;;;10.40;99.90;;;;;;5087855;28;20075;-70
2023/12/25 12:59:55;;;;;;;1.35;0.77;;;10.40;99.90;;;;;;5104876;28;20043;-71
2023/12/25 13:02:21;;;;;;;0.93;0.70;;;10.40;99.90;;;;;;5088138;28;20134;-71
2023/12/25 13:04:47;;;;;;;3.65;1.30;;;10.30;99.90;;;;;;5061568;28;20082;-71
2023/12/25 13:07:14;;;;;;;0.73;0.73;;;10.30;99.90;;;;;;5074428;28;20135;-70
2023/12/25 13:09:39;;;;;;;1.02;0.75;;;10.30;99.90;;;;;;5075676;28;20110;-69
2023/12/25 13:12:05;;;;;;;1.17;0.70;;;10.40;99.90;;;;;;5090944;28;20509;-71
2023/12/25 13:14:31;;;;;;;1.60;0.98;;;10.40;99.90;;;;;;5057765;28;20037;-60
2023/12/25 13:16:57;;;;;;;1.58;0.73;;;10.50;99.90;;;;;;5091077;28;20037;-72
2023/12/25 13:19:23;;;;;;;1.35;1.10;;;10.50;99.90;;;;;;5076120;28;20442;-72
2023/12/25 13:21:48;;;;;;;2.25;0.95;;;10.60;99.90;;;;;;5075611;28;20111;-72
2023/12/25 13:24:15;;;;;;;2.15;0.70;;;10.70;99.90;;;;;;5075331;28;20037;-74
2023/12/25 13:26:42;;;;;;;1.63;0.95;;;10.70;99.90;;;;;;5075385;28;20430;-71
2023/12/25 13:29:07;;;;;;;2.28;1.15;;;10.70;99.90;;;;;;5075379;28;20033;-71
2023/12/25 13:31:33;;;;;;;2.08;1.10;;;10.70;99.90;;;;;;5075353;28;20037;-71
2023/12/25 13:33:59;;;;;;;2.10;1.27;;;10.70;99.90;;;;;;5073659;28;20150;-72
2023/12/25 13:36:24;;;;;;;1.10;0.80;;;10.70;99.90;;;;;;5073996;28;20048;-73
2023/12/25 13:38:52;;;;;;;1.02;0.70;;;10.70;99.90;;;;;;5073777;28;20040;-73
2023/12/25 13:41:18;;;;;;;1.35;0.70;;;10.60;99.90;;;;;;5075201;28;20032;-70
2023/12/25 13:43:44;;;;;;;0.93;0.90;;;10.60;99.90;;;;;;5075659;28;20040;-72
2023/12/25 13:46:10;;;;;;;1.77;0.93;;;10.60;99.90;;;;;;5073805;28;20051;-72
2023/12/25 13:48:35;;;;;;;1.77;1.02;;;10.60;99.90;;;;;;5073759;28;20058;-73
2023/12/25 13:51:02;;;;;;;1.35;0.77;;;10.50;99.90;;;;;;5073955;28;20133;-72
2023/12/25 13:53:28;;;;;;;1.40;0.80;;;10.50;99.90;;;;;;5074632;28;20059;-73
2023/12/25 13:55:53;;;;;;;1.85;0.98;;;10.50;99.90;;;;;;5075110;28;20037;-72
2023/12/25 13:58:19;;;;;;;1.23;0.80;;;10.50;99.90;;;;;;5073456;28;20047;-72
2023/12/25 14:00:45;;;;;;;1.52;0.90;;;10.50;99.90;;;;;;5074978;28;20051;-72
2023/12/25 14:03:11;;;;;;;1.75;0.70;;;10.50;99.90;;;;;;5073414;28;20045;-71
2023/12/25 14:05:36;;;;;;;2.35;1.05;;;10.50;99.90;;;;;;5074652;28;20499;-72
2023/12/25 14:08:02;;;;;;;2.08;1.08;;;10.50;99.90;;;;;;5075151;28;20123;-72
2023/12/25 14:10:30;;;;;;;1.65;0.52;;;10.50;99.90;;;;;;5075177;28;20037;-71
2023/12/25 14:12:56;;;;;;;1.27;0.93;;;10.50;99.90;;;;;;5074851;28;20054;-71
2023/12/25 14:15:22;;;;;;;2.15;0.93;;;10.50;99.90;;;;;;5073979;28;20036;-72
2023/12/25 14:17:51;;;;;;;2.20;0.93;;;10.50;99.90;;;;;;5073941;28;20110;-72
2023/12/25 14:20:18;;;;;;;1.95;1.00;;;10.50;99.90;;;;;;5074905;28;20086;-72
2023/12/25 14:22:44;;;;;;;0.82;0.82;;;10.50;99.90;;;;;;5073334;28;20055;-71
2023/12/25 14:25:11;;;;;;;1.33;0.90;;;10.50;99.90;;;;;;5073601;28;20044;-63
2023/12/25 14:27:37;;;;;;;1.25;0.80;;;10.50;99.90;;;;;;5074629;28;20059;-59
2023/12/25 14:30:03;;;;;;;1.90;1.02;;;10.50;99.90;;;;;;5074570;28;20123;-59
2023/12/25 14:32:29;;;;;;;1.05;0.75;;;10.50;99.90;;;;;;5072832;28;20041;-59
2023/12/25 14:34:55;;;;;;;0.60;0.60;;;10.40;99.90;;;;;;5072968;28;20044;-61
2023/12/25 14:37:21;;;;;;;0.60;0.60;;;10.50;99.90;;;;;;5074138;28;20041;-59
2023/12/25 14:39:47;;;;;;;1.58;0.68;;;10.50;99.90;;;;;;5074276;28;20040;-59
2023/12/25 14:42:13;;;;;;;1.75;0.68;;;10.50;99.90;;;;;;5074017;28;20041;-59
2023/12/25 14:44:40;;;;;;;1.50;0.70;;;10.40;99.90;;;;;;5072635;28;20090;-59
2023/12/25 14:47:06;;;;;;;1.38;0.90;;;10.40;99.90;;;;;;5074042;28;20032;-59
2023/12/25 14:49:32;;;;;;;1.63;0.65;;;10.40;99.90;;;;;;5073873;28;20119;-59
2023/12/25 14:51:58;;;;;;;0.88;0.73;;;10.40;99.90;;;;;;5072328;28;20056;-59
2023/12/25 14:54:25;;;;;;;0.75;0.60;;;10.40;99.90;;;;;;5074021;28;20110;-59
2023/12/25 14:56:51;;;;;;;0.85;0.70;;;10.30;99.90;;;;;;5072457;28;20048;-59
2023/12/25 14:59:17;;;;;;;1.65;1.13;;;10.30;99.90;;;;;;5073509;28;20120;-59
2023/12/25 15:01:46;;;;;;;3.03;0.88;;;10.30;99.90;;;;;;5073413;28;20072;-60
2023/12/25 15:04:12;;;;;;;1.60;0.88;;;10.30;99.90;;;;;;5072532;28;20044;-59
2023/12/25 15:06:38;;;;;;;0.55;0.50;;;10.20;99.90;;;;;;5073705;28;20044;-59
2023/12/25 15:09:05;;;;;;;3.05;0.60;;;10.20;99.90;;;;;;5073922;28;20061;-59
2023/12/25 15:11:30;;;;;;;1.15;0.73;;;10.20;99.90;;;;;;5072721;28;20365;-63
2023/12/25 15:13:56;;;;;;;1.25;0.60;;;10.20;99.90;;;;;;5072164;28;20119;-60
2023/12/25 15:16:22;;;;;;;1.27;0.70;;;10.20;99.90;;;;;;5073058;28;20553;-59
2023/12/25 15:18:48;;;;;;;1.90;0.77;;;10.20;99.90;;;;;;5073676;28;20053;-59
2023/12/25 15:21:14;;;;;;;1.45;0.75;;;10.20;99.90;;;;;;5073143;28;20369;-59
2023/12/25 15:23:40;;;;;;;1.30;0.90;;;10.20;99.90;;;;;;5072732;28;20044;-60
2023/12/25 15:26:05;;;;;;;1.13;0.90;;;10.20;99.90;;;;;;5072853;28;20068;-61
2023/12/25 15:28:31;;;;;;;1.65;1.20;;;10.20;99.90;;;;;;5072911;28;20475;-59
2023/12/25 15:30:57;;;;;;;1.73;1.00;;;10.20;99.90;;;;;;5073045;28;20044;-59
2023/12/25 15:33:22;;;;;;;0.90;0.70;;;10.10;99.90;;;;;;5071227;28;20522;-60
2023/12/25 15:35:48;;;;;;;1.50;0.50;;;10.20;99.90;;;;;;5072727;28;20032;-64
2023/12/25 15:38:14;;;;;;;1.67;0.75;;;10.10;99.90;;;;;;5072311;28;20107;-63
2023/12/25 15:40:39;;;;;;;5.28;4.85;;;10.20;99.90;;;;;;5087514;28;20044;-64
2023/12/25 15:43:05;;;;;;;1.30;0.88;;;10.10;99.90;;;;;;5072204;28;20036;-63
2023/12/25 15:45:30;;;;;;;1.67;0.90;;;10.10;99.90;;;;;;5072154;28;20102;-64
2023/12/25 15:47:57;;;;;;;1.63;0.70;;;10.10;99.90;;;;;;5072150;28;20486;-64
2023/12/25 15:50:23;;;;;;;2.67;0.90;;;10.10;99.90;;;;;;5072171;28;20048;-63
2023/12/25 15:52:50;;;;;;;1.48;1.02;;;10.10;99.90;;;;;;5071675;28;20056;-63
2023/12/25 15:55:16;;;;;;;1.50;0.68;;;10.10;99.90;;;;;;5072087;28;20055;-64
2023/12/25 15:57:44;;;;;;;2.17;1.17;;;10.10;99.90;;;;;;5072102;28;20438;-63
2023/12/25 16:00:11;;;;;;;1.65;1.10;;;10.00;99.90;;;;;;5071807;28;20045;-64
2023/12/25 16:02:40;;;;;;;2.30;0.88;;;10.00;99.90;;;;;;5070392;28;20044;-64
2023/12/25 16:05:06;;;;;;;2.70;0.85;;;10.00;99.90;;;;;;5070741;28;20091;-63
2023/12/25 16:07:32;;;;;;;1.63;1.20;;;10.00;99.90;;;;;;5071930;28;20423;-64
2023/12/25 16:09:58;;;;;;;2.58;1.00;;;10.00;99.90;;;;;;5071739;28;20048;-66
2023/12/25 16:12:23;;;;;;;1.10;0.75;;;10.00;99.90;;;;;;5071685;28;20072;-63
2023/12/25 16:14:50;;;;;;;2.30;1.15;;;10.00;99.90;;;;;;5070386;28;20514;-64
2023/12/25 16:17:15;;;;;;;1.42;0.80;;;10.00;99.90;;;;;;5071882;28;20036;-63
2023/12/25 16:19:41;;;;;;;1.63;0.88;;;10.00;99.90;;;;;;5071910;28;20103;-64
2023/12/25 16:22:07;;;;;;;0.90;0.57;;;10.00;99.90;;;;;;5071904;28;20119;-63
2023/12/25 16:24:33;;;;;;;0.82;0.70;;;9.90;99.90;;;;;;5071864;28;20040;-64
2023/12/25 16:26:59;;;;;;;3.95;1.25;;;9.90;99.90;;;;;;5070449;28;20089;-64
2023/12/25 16:29:25;;;;;;;1.27;0.80;;;9.90;99.90;;;;;;5071769;28;20372;-64
2023/12/25 16:31:50;;;;;;;0.70;0.63;;;9.90;99.90;;;;;;5070002;28;20507;-64
2023/12/25 16:34:16;;;;;;;1.30;1.10;;;9.90;99.90;;;;;;5071783;28;20048;-64
2023/12/25 16:36:42;;;;;;;0.80;0.43;;;9.90;99.90;;;;;;5071796;28;20058;-64
2023/12/25 16:39:07;;;;;;;1.33;0.75;;;9.80;99.90;;;;;;5072795;28;20036;-66
2023/12/25 16:41:33;;;;;;;1.85;0.77;;;9.80;99.90;;;;;;5075401;28;20036;-64
2023/12/25 16:43:59;;;;;;;1.50;1.05;;;9.80;99.90;;;;;;5075136;28;20479;-64
2023/12/25 16:46:25;;;;;;;1.65;1.08;;;9.80;99.90;;;;;;5076172;28;20037;-60
2023/12/25 16:48:52;;;;;;;1.10;0.60;;;9.80;99.90;;;;;;5076228;28;20062;-60
2023/12/25 16:51:17;;;;;;;1.02;0.68;;;9.80;99.90;;;;;;5076078;28;20076;-60
2023/12/25 16:53:43;;;;;;;1.15;0.85;;;9.80;99.90;;;;;;5075597;28;20526;-59
2023/12/25 16:56:09;;;;;;;1.27;0.70;;;9.80;99.90;;;;;;5057967;28;20032;-59
2023/12/25 16:58:38;;;;;;;1.17;0.70;;;9.80;99.90;;;;;;5075571;28;20041;-60